Time;durP1;ratioP1;P1;durP2;ratioP2;P2;SDS_P1;SDS_P2;PMS_P1;PMS_P2;Temp;Humidity;BMP_temperature;BMP_pressure;BME280_temperature;BME280_humidity;BME280_pressure;Samples;Min_cycle;Max_cycle;Signal;HPM_P1;HPM_P2
2022/10/08 00:01:11;;;;;;;16.50;9.50;;;;;;;10.94;78.84;100701.39;1643759;85;25868;-66
2022/10/08 00:03:42;;;;;;;20.37;9.83;;;;;;;10.93;78.95;100698.42;1643665;86;25927;-66
2022/10/08 00:06:13;;;;;;;14.87;9.63;;;;;;;10.91;79.01;100690.61;1643735;85;25667;-66
2022/10/08 00:08:42;;;;;;;16.73;10.30;;;;;;;10.91;79.04;100690.61;1643905;86;27342;-66
2022/10/08 00:11:12;;;;;;;;;;;;;;;10.90;79.22;100680.91;1645928;85;25732;-67
2022/10/08 00:13:40;;;;;;;;;;;;;;;10.89;79.30;100682.00;1662942;85;25609;-67
2022/10/08 00:16:14;;;;;;;13.13;8.95;;;;;;;10.85;79.35;100678.30;1660418;85;25687;-67
2022/10/08 00:18:43;;;;;;;13.62;9.13;;;;;;;10.84;79.34;100676.68;1658873;85;25728;-65
2022/10/08 00:21:15;;;;;;;17.30;9.65;;;;;;;10.81;79.30;100671.34;1660548;85;27568;-65
2022/10/08 00:23:43;;;;;;;15.18;9.38;;;;;;;10.80;79.43;100671.63;1643718;86;25501;-65
2022/10/08 00:26:10;;;;;;;17.02;9.50;;;;;;;10.77;79.36;100662.20;1643499;86;25755;-65
2022/10/08 00:28:41;;;;;;;15.68;9.15;;;;;;;10.77;79.54;100658.14;1643810;85;26296;-65
2022/10/08 00:31:14;;;;;;;14.05;9.98;;;;;;;10.76;79.73;100654.38;1643811;85;25669;-65
2022/10/08 00:33:41;;;;;;;14.05;9.10;;;;;;;10.73;79.81;100649.59;1643575;86;27409;-65
2022/10/08 00:36:11;;;;;;;13.93;8.78;;;;;;;10.72;79.78;100654.19;1643632;86;25823;-66
2022/10/08 00:38:39;;;;;;;15.23;10.53;;;;;;;10.69;79.77;100639.11;1643838;87;25765;-65
2022/10/08 00:41:10;;;;;;;17.23;10.88;;;;;;;10.68;80.06;100638.31;1640768;86;25808;-65
2022/10/08 00:43:47;;;;;;;17.50;9.98;;;;;;;10.65;80.13;100637.56;1641446;86;25651;-65
2022/10/08 00:46:37;;;;;;;22.62;10.65;;;;;;;10.63;80.22;100633.01;1643738;86;27322;-65
2022/10/08 00:49:18;;;;;;;15.13;10.28;;;;;;;10.59;80.79;100626.05;1644381;86;25941;-66
2022/10/08 00:51:53;;;;;;;15.05;10.18;;;;;;;10.59;80.50;100621.17;1648189;85;25667;-66
2022/10/08 00:54:21;;;;;;;16.02;10.28;;;;;;;10.57;80.58;100614.73;1649428;86;25467;-66
2022/10/08 00:56:53;;;;;;;16.07;10.03;;;;;;;10.57;80.77;100616.62;1649630;86;25727;-66
2022/10/08 00:59:20;;;;;;;15.38;10.32;;;;;;;10.54;80.78;100608.56;1630470;87;28164;-66
2022/10/08 01:01:46;;;;;;;15.13;9.68;;;;;;;10.54;80.85;100610.45;1649479;86;25688;-66
2022/10/08 01:04:14;;;;;;;17.65;10.28;;;;;;;10.54;81.04;100609.92;1649574;85;25645;-65
2022/10/08 01:07:01;;;;;;;12.33;9.80;;;;;;;10.54;80.87;100607.74;1649602;86;25676;-65
2022/10/08 01:09:38;;;;;;;18.55;11.10;;;;;;;10.52;80.96;100599.14;1626311;87;25893;-65
2022/10/08 01:12:29;;;;;;;16.27;10.72;;;;;;;10.51;81.07;100601.05;1655047;86;27318;-66
2022/10/08 01:15:05;;;;;;;15.23;10.45;;;;;;;10.50;81.25;100597.29;1651404;86;25962;-67
2022/10/08 01:17:52;;;;;;;18.67;10.88;;;;;;;10.50;81.40;100599.99;1652411;86;25662;-66
2022/10/08 01:20:47;;;;;;;14.83;10.38;;;;;;;10.48;81.50;100591.39;1652726;86;25635;-65
2022/10/08 01:23:37;;;;;;;14.10;9.95;;;;;;;10.46;81.54;100590.33;1655379;86;25725;-66
2022/10/08 01:26:26;;;;;;;16.55;10.85;;;;;;;10.46;81.66;100598.44;1618762;87;28163;-65
2022/10/08 01:29:04;;;;;;;17.65;10.63;;;;;;;10.45;81.96;100603.06;1638275;86;25475;-65
2022/10/08 01:31:39;;;;;;;18.00;10.28;;;;;;;10.45;81.75;100584.12;1661538;85;25458;-65
2022/10/08 01:34:16;;;;;;;17.48;9.90;;;;;;;10.46;81.91;100589.77;1660255;85;25668;-65
2022/10/08 01:36:47;;;;;;;20.15;10.68;;;;;;;10.45;82.04;100583.31;1660703;85;25680;-65
2022/10/08 01:39:17;;;;;;;15.38;10.32;;;;;;;10.44;82.06;100573.61;1662112;85;28129;-65
2022/10/08 01:41:49;;;;;;;17.15;10.08;;;;;;;10.44;82.12;100572.26;1662239;85;25798;-65
2022/10/08 01:44:26;;;;;;;17.60;11.00;;;;;;;10.43;82.14;100572.00;1661329;85;25800;-65
2022/10/08 01:46:58;;;;;;;16.40;11.53;;;;;;;10.43;82.46;100566.59;1634138;86;26148;-65
2022/10/08 01:49:29;;;;;;;16.27;10.40;;;;;;;10.41;82.33;100565.53;1655767;85;25572;-65
2022/10/08 01:52:03;;;;;;;18.17;10.43;;;;;;;10.40;82.52;100550.95;1660138;85;27297;-65
2022/10/08 01:54:31;;;;;;;15.10;10.43;;;;;;;10.41;82.80;100558.77;1612280;86;26301;-65
2022/10/08 01:57:01;;;;;;;14.23;10.30;;;;;;;10.40;82.87;100556.37;1646687;85;25688;-65
2022/10/08 01:59:32;;;;;;;18.92;10.88;;;;;;;10.41;82.86;100545.25;1648591;85;25506;-65
2022/10/08 02:02:04;;;;;;;17.23;10.80;;;;;;;10.41;83.04;100546.61;1662814;85;25655;-65
2022/10/08 02:04:34;;;;;;;17.20;10.55;;;;;;;10.40;82.96;100545.55;1657314;85;28066;-65
2022/10/08 02:07:12;;;;;;;20.72;10.58;;;;;;;10.40;83.23;100547.73;1663291;85;25560;-66
2022/10/08 02:09:44;;;;;;;18.90;11.48;;;;;;;10.41;83.59;100553.36;1663234;85;25652;-65
2022/10/08 02:12:11;;;;;;;18.23;11.88;;;;;;;10.43;83.41;100547.66;1647327;85;25433;-65
2022/10/08 02:14:43;;;;;;;19.02;11.93;;;;;;;10.44;83.71;100546.56;1662851;85;25772;-65
2022/10/08 02:17:53;;;;;;;18.52;11.12;;;;;;;10.44;83.91;100541.95;1647754;85;27409;-66
2022/10/08 02:21:04;;;;;;;22.95;11.53;;;;;;;10.47;83.89;100541.88;1656560;85;25691;-67
2022/10/08 02:23:37;;;;;;;21.23;12.30;;;;;;;10.46;83.79;100543.80;1643426;87;25670;-65
2022/10/08 02:26:08;;;;;;;21.40;12.33;;;;;;;10.49;84.40;100541.59;1657601;85;25656;-65
2022/10/08 02:28:48;;;;;;;24.77;12.65;;;;;;;10.51;84.45;100546.95;1664977;85;25708;-65
2022/10/08 02:31:28;;;;;;;20.85;13.28;;;;;;;10.53;84.56;100539.89;1661281;85;28139;-65
2022/10/08 02:34:09;;;;;;;20.30;11.75;;;;;;;10.54;84.43;100544.19;1658656;85;25774;-67
2022/10/08 02:36:40;;;;;;;23.92;12.73;;;;;;;10.55;84.27;100537.69;1653356;85;25517;-65
2022/10/08 02:39:09;;;;;;;20.88;13.32;;;;;;;10.57;84.65;100536.30;1633057;85;25457;-65
2022/10/08 02:41:43;;;;;;;20.65;14.38;;;;;;;10.58;84.56;100532.47;1649038;85;25573;-65
2022/10/08 02:44:16;;;;;;;18.87;14.35;;;;;;;10.62;84.46;100531.30;1629975;85;27423;-65
2022/10/08 02:46:47;;;;;;;20.32;14.35;;;;;;;10.65;84.71;100534.77;1670021;85;25706;-66
2022/10/08 02:49:17;;;;;;;23.67;14.33;;;;;;;10.67;84.58;100519.58;1651849;85;25466;-65
2022/10/08 02:51:48;;;;;;;18.85;15.03;;;;;;;10.68;84.35;100521.20;1681957;85;25465;-65
2022/10/08 02:54:18;;;;;;;24.43;15.23;;;;;;;10.69;84.46;100514.66;1715876;82;25397;-65
2022/10/08 02:57:01;;;;;;;26.35;15.88;;;;;;;10.69;84.45;100524.13;1713614;83;27334;-65
2022/10/08 02:59:28;;;;;;;22.22;15.30;;;;;;;10.70;84.64;100518.42;1682701;83;25640;-67
2022/10/08 03:01:58;;;;;;;21.45;15.53;;;;;;;10.70;84.40;100519.77;1706952;83;25583;-67
2022/10/08 03:04:47;;;;;;;23.22;14.87;;;;;;;10.71;84.32;100524.09;1722568;83;25608;-68
2022/10/08 03:07:14;;;;;;;23.07;15.80;;;;;;;10.72;84.39;100518.12;1723494;83;25630;-65
2022/10/08 03:09:44;;;;;;;22.90;15.40;;;;;;;10.73;84.46;100524.58;1711250;83;27365;-66
2022/10/08 03:12:12;;;;;;;24.82;16.25;;;;;;;10.74;84.44;100521.31;1677836;84;25840;-65
2022/10/08 03:14:42;;;;;;;30.08;16.42;;;;;;;10.73;84.29;100520.52;1722856;83;25552;-66
2022/10/08 03:17:12;;;;;;;25.48;16.62;;;;;;;10.74;84.16;100518.61;1722677;83;25722;-66
2022/10/08 03:19:38;;;;;;;24.70;17.02;;;;;;;10.74;84.19;100518.61;1703350;83;25651;-65
2022/10/08 03:22:06;;;;;;;22.65;16.23;;;;;;;10.74;83.86;100519.40;1704375;83;29684;-65
2022/10/08 03:24:35;;;;;;;25.85;17.05;;;;;;;10.74;83.95;100518.61;1705560;83;25653;-65
2022/10/08 03:27:02;;;;;;;24.27;16.67;;;;;;;10.72;84.18;100514.85;1718575;83;25565;-65
2022/10/08 03:29:28;;;;;;;19.15;15.50;;;;;;;10.69;84.10;100508.69;1710014;83;27568;-65
2022/10/08 03:31:54;;;;;;;24.57;17.07;;;;;;;10.68;84.55;100509.02;1707000;83;25669;-65
2022/10/08 03:34:26;;;;;;;23.07;16.23;;;;;;;10.66;84.06;100505.27;1715321;83;27353;-65
2022/10/08 03:36:52;;;;;;;25.75;17.57;;;;;;;10.65;84.30;100509.85;1689143;83;25598;-65
2022/10/08 03:39:18;;;;;;;23.18;18.15;;;;;;;10.62;84.45;100498.31;1720992;83;25593;-65
2022/10/08 03:41:44;;;;;;;22.95;17.75;;;;;;;10.61;84.60;100498.05;1697818;83;25469;-65
2022/10/08 03:44:11;;;;;;;24.98;18.17;;;;;;;10.60;84.78;100500.50;1696872;84;25418;-65
2022/10/08 03:46:37;;;;;;;27.80;18.10;;;;;;;10.59;84.77;100500.27;1668964;84;27340;-65
2022/10/08 03:49:03;;;;;;;28.10;18.10;;;;;;;10.58;84.66;100499.22;1694153;83;25462;-65
2022/10/08 03:51:30;;;;;;;26.97;17.52;;;;;;;10.57;84.70;100491.66;1692930;84;29590;-66
2022/10/08 03:53:57;;;;;;;25.55;18.62;;;;;;;10.57;84.71;100501.13;1692215;83;25579;-65
2022/10/08 03:56:24;;;;;;;27.17;18.40;;;;;;;10.57;85.30;100490.84;1692314;84;25435;-65
2022/10/08 03:58:56;;;;;;;27.82;19.57;;;;;;;10.56;85.12;100491.41;1692174;83;27382;-66
2022/10/08 04:01:24;;;;;;;27.70;19.17;;;;;;;10.56;85.44;100490.61;1646606;85;25823;-66
2022/10/08 04:03:51;;;;;;;24.30;18.82;;;;;;;10.54;85.26;100484.68;1675494;84;25467;-66
2022/10/08 04:06:17;;;;;;;25.95;18.45;;;;;;;10.54;85.05;100486.03;1678886;84;25453;-66
2022/10/08 04:08:43;;;;;;;29.80;19.35;;;;;;;10.55;85.07;100491.70;1650334;85;25649;-66
2022/10/08 04:11:13;;;;;;;25.17;18.32;;;;;;;10.54;85.32;100488.73;1655842;85;27395;-66
2022/10/08 04:13:40;;;;;;;;;;;;;;;10.53;85.38;100489.86;1669935;84;25629;-66
2022/10/08 04:16:11;;;;;;;25.80;18.23;;;;;;;10.54;85.44;100485.50;1673047;84;25706;-66
2022/10/08 04:18:37;;;;;;;25.30;19.37;;;;;;;10.54;85.73;100488.73;1700617;83;25398;-66
2022/10/08 04:21:08;;;;;;;24.75;19.27;;;;;;;10.55;85.78;100484.38;1666652;85;25633;-66
2022/10/08 04:23:37;;;;;;;28.23;19.35;;;;;;;10.57;85.86;100483.55;1688561;84;27303;-66
2022/10/08 04:26:06;;;;;;;28.55;19.57;;;;;;;10.59;86.12;100485.92;1655287;84;25642;-66
2022/10/08 04:28:34;;;;;;;25.32;18.25;;;;;;;10.60;86.10;100484.27;1676531;84;25397;-67
2022/10/08 04:31:04;;;;;;;25.80;18.32;;;;;;;10.63;86.15;100484.23;1672992;84;25579;-67
2022/10/08 04:33:33;;;;;;;28.50;18.07;;;;;;;10.67;86.19;100487.12;1667659;84;25430;-67
2022/10/08 04:36:00;;;;;;;28.32;19.07;;;;;;;10.69;86.32;100488.41;1642548;85;27989;-66
2022/10/08 04:38:27;;;;;;;24.75;18.50;;;;;;;10.72;86.26;100491.86;1683155;84;25617;-66
2022/10/08 04:41:22;;;;;;;27.17;18.57;;;;;;;10.74;86.38;100487.49;1680063;84;25435;-66
2022/10/08 04:43:49;;;;;;;24.87;18.02;;;;;;;10.77;86.37;100484.98;1690011;83;26112;-65
2022/10/08 04:46:19;;;;;;;24.60;17.80;;;;;;;10.77;86.70;100483.63;1697710;83;25584;-67
2022/10/08 04:48:49;;;;;;;25.30;17.85;;;;;;;10.81;86.53;100482.45;1690854;83;26646;-67
2022/10/08 04:51:17;;;;;;;24.65;18.17;;;;;;;10.83;86.96;100478.92;1713590;83;25681;-65
2022/10/08 04:53:43;;;;;;;24.95;17.70;;;;;;;10.83;86.56;100485.12;1700458;83;25703;-65
2022/10/08 04:56:17;;;;;;;25.02;18.52;;;;;;;10.88;86.60;100485.56;1711862;83;25678;-65
2022/10/08 04:58:44;;;;;;;25.30;18.75;;;;;;;10.90;86.75;100479.28;1710667;82;25628;-67
2022/10/08 05:01:14;;;;;;;27.37;17.90;;;;;;;10.93;86.62;100476.50;1703676;83;27377;-68
2022/10/08 05:03:45;;;;;;;24.30;17.50;;;;;;;10.96;86.78;100472.62;1704964;83;27229;-67
2022/10/08 05:06:13;;;;;;;23.87;17.32;;;;;;;10.98;86.72;100470.44;1705002;83;25726;-68
2022/10/08 05:08:40;;;;;;;26.77;17.87;;;;;;;11.01;86.96;100475.22;1704859;83;25700;-67
2022/10/08 05:11:07;;;;;;;27.30;18.12;;;;;;;11.03;86.85;100468.14;1701138;83;25899;-68
2022/10/08 05:13:33;;;;;;;24.55;18.07;;;;;;;11.05;86.73;100465.95;1709707;83;27330;-67
2022/10/08 05:16:08;;;;;;;26.20;17.77;;;;;;;11.10;86.72;100473.12;1707515;83;25955;-68
2022/10/08 05:18:36;;;;;;;23.18;16.52;;;;;;;11.11;86.87;100466.06;1710622;83;25683;-65
2022/10/08 05:21:10;;;;;;;27.17;16.40;;;;;;;11.15;86.72;100466.23;1692087;83;25338;-65
2022/10/08 05:23:37;;;;;;;25.90;16.70;;;;;;;11.16;86.84;100465.93;1695752;83;25611;-65
2022/10/08 05:26:22;;;;;;;25.77;17.30;;;;;;;11.19;87.02;100465.32;1696058;83;27341;-65
2022/10/08 05:28:54;;;;;;;23.55;16.42;;;;;;;11.24;87.04;100470.35;1687488;84;25489;-65
2022/10/08 05:31:23;;;;;;;24.07;17.92;;;;;;;11.26;87.16;100463.53;1709879;83;25391;-67
2022/10/08 05:33:50;;;;;;;25.52;17.17;;;;;;;11.29;87.25;100462.92;1707501;83;25405;-66
2022/10/08 05:36:21;;;;;;;25.40;16.70;;;;;;;11.33;87.27;100472.02;1708849;83;25576;-67
2022/10/08 05:38:48;;;;;;;22.15;15.98;;;;;;;11.38;87.19;100478.66;1683483;84;27409;-67
2022/10/08 05:41:22;;;;;;;25.05;17.40;;;;;;;11.44;87.38;100475.28;1695569;83;25758;-66
2022/10/08 05:43:49;;;;;;;21.00;16.57;;;;;;;11.49;87.17;100474.33;1675264;83;25631;-66
2022/10/08 05:46:17;;;;;;;23.80;17.65;;;;;;;11.54;87.34;100480.97;1694659;83;25648;-66
2022/10/08 05:48:44;;;;;;;23.07;17.10;;;;;;;11.57;87.32;100487.92;1702710;83;25586;-66
2022/10/08 05:51:14;;;;;;;23.38;16.80;;;;;;;11.60;86.82;100478.39;1718168;83;27386;-66
2022/10/08 05:53:45;;;;;;;27.50;17.98;;;;;;;11.64;86.65;100494.25;1710998;83;25492;-66
2022/10/08 05:56:15;;;;;;;25.08;15.48;;;;;;;11.65;86.43;100490.44;1714141;83;25661;-66
2022/10/08 05:58:43;;;;;;;23.50;15.43;;;;;;;11.65;86.19;100484.23;1712443;83;25411;-66
2022/10/08 06:01:19;;;;;;;23.35;16.05;;;;;;;11.65;86.07;100486.94;1714131;83;25468;-66
2022/10/08 06:03:56;;;;;;;23.05;16.90;;;;;;;11.65;86.37;100500.49;1680100;84;27515;-65
2022/10/08 06:06:24;;;;;;;24.80;17.35;;;;;;;11.62;86.18;100495.13;1687816;83;25600;-66
2022/10/08 06:08:57;;;;;;;20.88;16.42;;;;;;;11.63;86.06;100496.73;1686429;85;25427;-66
2022/10/08 06:11:26;;;;;;;28.25;17.92;;;;;;;11.63;86.20;100491.84;1696213;83;25821;-66
2022/10/08 06:13:56;;;;;;;22.17;16.48;;;;;;;11.67;86.22;100506.39;1685486;83;25429;-66
2022/10/08 06:16:23;;;;;;;23.92;16.30;;;;;;;11.68;86.23;100506.62;1688404;83;27403;-66
2022/10/08 06:18:50;;;;;;;23.07;16.57;;;;;;;11.71;86.18;100504.11;1691836;83;25662;-66
2022/10/08 06:21:20;;;;;;;26.17;16.55;;;;;;;11.80;86.36;100505.51;1695411;83;25611;-66
2022/10/08 06:23:53;;;;;;;24.92;17.30;;;;;;;11.93;86.76;100506.53;1693167;83;25792;-66
2022/10/08 06:26:24;;;;;;;25.77;16.35;;;;;;;12.06;86.65;100501.56;1693880;83;25656;-65
2022/10/08 06:28:52;;;;;;;22.00;15.60;;;;;;;12.22;86.44;100504.64;1690398;83;27314;-66
2022/10/08 06:31:19;;;;;;;21.80;16.62;;;;;;;12.40;86.61;100501.99;1687510;83;25629;-66
2022/10/08 06:33:45;;;;;;;24.60;15.55;;;;;;;12.62;86.51;100505.14;1687931;83;25788;-66
2022/10/08 06:36:16;;;;;;;23.50;15.95;;;;;;;12.80;86.37;100509.45;1687812;84;25422;-66
2022/10/08 06:38:48;;;;;;;30.82;16.73;;;;;;;13.03;86.86;100503.89;1687888;83;25630;-66
2022/10/08 06:41:14;;;;;;;24.60;15.55;;;;;;;13.32;85.30;100499.73;1685602;84;27319;-66
2022/10/08 06:43:41;;;;;;;23.77;16.05;;;;;;;13.46;84.51;100500.34;1674208;84;25827;-65
2022/10/08 06:46:09;;;;;;;23.00;15.70;;;;;;;13.68;85.06;100506.11;1694853;83;25406;-66
2022/10/08 06:48:36;;;;;;;21.07;15.53;;;;;;;13.92;84.57;100493.31;1670726;84;25461;-66
2022/10/08 06:51:08;;;;;;;23.15;15.65;;;;;;;14.13;83.70;100502.09;1644940;85;25499;-67
2022/10/08 06:53:35;;;;;;;19.17;14.05;;;;;;;14.32;82.88;100499.77;1617513;87;27350;-68
2022/10/08 06:56:05;;;;;;;20.80;14.98;;;;;;;14.43;81.48;100502.11;1645853;85;27163;-65
2022/10/08 06:58:34;;;;;;;20.37;15.95;;;;;;;14.50;81.32;100499.08;1656481;85;25692;-66
2022/10/08 07:01:07;;;;;;;18.73;14.07;;;;;;;14.60;81.28;100501.23;1648748;85;25723;-66
2022/10/08 07:03:34;;;;;;;19.98;14.73;;;;;;;14.81;80.58;100499.28;1670382;85;25648;-66
2022/10/08 07:06:04;;;;;;;19.42;15.63;;;;;;;14.96;80.14;100497.11;1650982;85;28142;-66
2022/10/08 07:08:31;;;;;;;22.70;13.78;;;;;;;15.02;79.27;100502.59;1636749;85;25654;-67
2022/10/08 07:11:07;;;;;;;20.97;15.80;;;;;;;15.05;79.62;100499.17;1659273;85;25635;-67
2022/10/08 07:13:34;;;;;;;19.90;14.50;;;;;;;15.09;79.18;100501.48;1653003;85;25824;-66
2022/10/08 07:16:11;;;;;;;22.40;14.28;;;;;;;15.17;79.23;100499.80;1649954;85;25709;-66
2022/10/08 07:18:39;;;;;;;19.92;13.53;;;;;;;15.24;79.35;100495.98;1658858;85;27378;-67
2022/10/08 07:21:09;;;;;;;20.60;13.38;;;;;;;15.41;79.22;100499.89;1654090;85;25765;-68
2022/10/08 07:23:35;;;;;;;18.87;12.98;;;;;;;15.49;78.73;100507.19;1636727;85;25454;-67
2022/10/08 07:26:09;;;;;;;18.85;13.40;;;;;;;15.51;78.18;100500.04;1659602;85;25455;-67
2022/10/08 07:28:39;;;;;;;23.20;14.65;;;;;;;15.54;77.70;100498.55;1660094;85;25501;-67
2022/10/08 07:31:12;;;;;;;21.62;14.55;;;;;;;15.50;77.17;100495.13;1656011;85;27320;-66
2022/10/08 07:33:39;;;;;;;23.10;14.18;;;;;;;15.48;77.58;100497.41;1642707;85;25759;-67
2022/10/08 07:36:15;;;;;;;19.55;13.30;;;;;;;15.50;77.52;100495.13;1643673;85;25641;-66
2022/10/08 07:38:42;;;;;;;17.37;13.55;;;;;;;15.52;77.47;100492.08;1648630;85;25338;-69
2022/10/08 07:41:11;;;;;;;18.55;13.60;;;;;;;15.53;77.15;100494.22;1648481;85;25423;-66
2022/10/08 07:43:42;;;;;;;20.90;15.13;;;;;;;15.48;76.90;100489.80;1644471;85;28111;-67
2022/10/08 07:46:11;;;;;;;23.95;14.98;;;;;;;15.44;76.92;100485.59;1640499;85;25727;-67
2022/10/08 07:48:38;;;;;;;19.37;15.38;;;;;;;15.46;77.26;100481.14;1637840;87;25583;-67
2022/10/08 07:51:12;;;;;;;21.90;15.45;;;;;;;15.43;76.88;100482.63;1651892;85;26450;-66
2022/10/08 07:53:40;;;;;;;20.97;15.43;;;;;;;15.42;77.20;100478.30;1664035;85;25701;-67
2022/10/08 07:56:09;;;;;;;21.52;16.93;;;;;;;15.44;77.36;100475.24;1705029;82;27364;-67
2022/10/08 07:58:36;;;;;;;19.75;14.87;;;;;;;15.46;77.24;100472.42;1695727;83;25558;-67
2022/10/08 08:01:07;;;;;;;18.92;14.87;;;;;;;15.47;77.35;100476.72;1712810;83;25641;-66
2022/10/08 08:03:35;;;;;;;24.43;16.97;;;;;;;15.50;77.50;100479.36;1705832;83;25579;-68
2022/10/08 08:06:03;;;;;;;22.75;16.95;;;;;;;15.47;77.33;100475.36;1705501;83;25744;-67
2022/10/08 08:08:30;;;;;;;19.82;14.80;;;;;;;15.52;77.67;100471.63;1700039;83;28053;-66
2022/10/08 08:11:02;;;;;;;18.65;13.18;;;;;;;15.55;77.55;100470.17;1688745;83;25782;-67
2022/10/08 08:13:31;;;;;;;25.02;15.40;;;;;;;15.57;77.63;100470.05;1679858;84;25486;-67
2022/10/08 08:16:08;;;;;;;17.92;14.60;;;;;;;15.67;77.62;100473.70;1696559;83;25744;-68
2022/10/08 08:18:38;;;;;;;20.15;14.23;;;;;;;15.65;77.12;100475.97;1713073;83;25694;-67
2022/10/08 08:21:09;;;;;;;17.90;13.28;;;;;;;15.68;77.22;100473.94;1709311;83;28031;-68
2022/10/08 08:23:40;;;;;;;19.25;13.05;;;;;;;15.72;77.46;100470.54;1702121;82;25699;-67
2022/10/08 08:26:11;;;;;;;19.40;12.90;;;;;;;15.76;77.41;100468.74;1708791;83;25788;-67
2022/10/08 08:28:38;;;;;;;17.00;13.25;;;;;;;15.84;77.50;100471.94;1714273;82;25700;-67
2022/10/08 08:31:12;;;;;;;18.07;12.93;;;;;;;15.86;77.32;100468.30;1704940;83;25750;-68
2022/10/08 08:33:40;;;;;;;17.07;13.20;;;;;;;15.93;77.45;100458.97;1715084;83;27360;-67
2022/10/08 08:36:07;;;;;;;17.77;13.20;;;;;;;16.03;77.61;100463.97;1686806;84;25565;-68
2022/10/08 08:38:35;;;;;;;21.62;13.15;;;;;;;16.11;77.36;100465.00;1714595;83;25750;-68
2022/10/08 08:41:28;;;;;;;23.50;13.40;;;;;;;16.21;77.51;100461.81;1700627;83;25776;-68
2022/10/08 08:44:02;;;;;;;16.77;13.22;;;;;;;16.49;77.87;100463.80;1695507;83;25660;-69
2022/10/08 08:46:35;;;;;;;18.62;12.28;;;;;;;16.64;76.96;100463.66;1692653;84;27317;-68
2022/10/08 08:49:07;;;;;;;17.23;12.95;;;;;;;16.75;76.53;100462.59;1692112;83;25768;-67
2022/10/08 08:51:33;;;;;;;17.85;12.15;;;;;;;16.83;76.76;100448.00;1681402;83;25944;-67
2022/10/08 08:54:00;;;;;;;20.65;12.58;;;;;;;17.03;76.68;100455.03;1694561;83;25611;-67
2022/10/08 08:56:27;;;;;;;14.55;11.55;;;;;;;17.22;75.91;100457.87;1695877;83;25692;-67
2022/10/08 08:59:05;;;;;;;15.53;11.43;;;;;;;17.39;75.91;100464.18;1694752;83;27899;-67
2022/10/08 09:01:44;;;;;;;15.75;11.33;;;;;;;17.65;76.47;100449.98;1683765;84;25698;-66
2022/10/08 09:04:35;;;;;;;17.02;12.55;;;;;;;18.07;75.02;100449.45;1711251;83;25747;-66
2022/10/08 09:07:07;;;;;;;15.88;10.30;;;;;;;18.46;73.90;100445.43;1701053;83;25899;-67
2022/10/08 09:09:41;;;;;;;15.78;10.88;;;;;;;18.76;72.88;100442.11;1710112;83;25697;-68
2022/10/08 09:12:34;;;;;;;14.87;10.85;;;;;;;19.37;73.80;100444.07;1706499;83;27392;-67
2022/10/08 09:15:04;;;;;;;12.75;10.15;;;;;;;19.91;72.20;100443.62;1695851;82;26328;-69
2022/10/08 09:17:34;;;;;;;16.27;9.13;;;;;;;20.31;70.14;100448.30;1693343;82;25716;-69
2022/10/08 09:20:01;;;;;;;13.75;10.38;;;;;;;20.66;69.57;100441.14;1695892;82;26256;-66
2022/10/08 09:26:25;;;;;;;14.40;9.80;;;;;;;21.60;68.94;100442.12;1699669;82;26008;-66
2022/10/08 09:28:55;;;;;;;11.60;9.23;;;;;;;22.43;65.51;100445.47;1700994;82;25660;-66
2022/10/08 09:31:41;;;;;;;10.72;9.00;;;;;;;22.59;62.21;100444.55;1707674;83;25593;-66
2022/10/08 09:34:15;;;;;;;15.50;9.80;;;;;;;22.70;62.29;100436.33;1695827;83;25695;-66
2022/10/08 09:36:50;;;;;;;13.05;9.25;;;;;;;22.79;61.05;100439.50;1704072;82;25733;-65
2022/10/08 09:39:24;;;;;;;14.50;10.88;;;;;;;22.97;61.20;100442.33;1701419;82;27711;-65
2022/10/08 09:42:12;;;;;;;13.98;9.88;;;;;;;23.19;60.50;100444.58;1705407;82;25727;-66
2022/10/08 09:44:55;;;;;;;14.10;10.18;;;;;;;23.39;58.81;100439.45;1707142;83;25720;-65
2022/10/08 09:47:23;;;;;;;11.50;9.80;;;;;;;23.28;58.52;100437.30;1709141;82;26205;-65
2022/10/08 09:50:37;;;;;;;13.10;9.13;;;;;;;23.41;59.23;100432.97;1707498;83;25368;-66
2022/10/08 09:53:05;;;;;;;14.03;9.55;;;;;;;23.83;60.14;100430.02;1631334;87;27471;-65
2022/10/08 09:55:35;;;;;;;17.13;9.03;;;;;;;24.66;57.48;100427.66;1646401;86;25753;-63
2022/10/08 09:58:03;;;;;;;13.70;9.10;;;;;;;24.49;55.85;100419.60;1624443;87;25752;-64
2022/10/08 10:00:36;;;;;;;13.25;8.20;;;;;;;24.28;56.22;100423.21;1628083;87;25820;-65
2022/10/08 10:03:06;;;;;;;10.13;8.50;;;;;;;24.22;55.02;100416.71;1638984;87;25718;-65
2022/10/08 10:05:35;;;;;;;13.68;9.18;;;;;;;24.08;53.88;100419.53;1643548;87;27401;-64
2022/10/08 10:08:03;;;;;;;13.93;9.58;;;;;;;23.72;53.70;100415.98;1622335;87;26645;-64
2022/10/08 10:10:43;;;;;;;12.23;9.13;;;;;;;23.35;54.99;100415.81;1624742;87;25894;-64
2022/10/08 10:13:24;;;;;;;12.93;8.75;;;;;;;23.15;54.56;100412.64;1608783;88;25737;-64
2022/10/08 10:16:03;;;;;;;11.15;8.93;;;;;;;22.85;55.28;100406.81;1633994;87;25873;-65
2022/10/08 10:18:35;;;;;;;11.85;9.08;;;;;;;22.69;55.37;100411.31;1634905;87;27726;-66
2022/10/08 10:21:09;;;;;;;13.15;9.35;;;;;;;22.35;55.61;100413.72;1624069;87;25772;-65
2022/10/08 10:23:40;;;;;;;12.28;8.90;;;;;;;22.08;56.08;100418.66;1635282;87;25739;-65
2022/10/08 10:26:10;;;;;;;12.50;9.00;;;;;;;21.82;56.55;100416.94;1628049;87;26294;-65
2022/10/08 10:28:50;;;;;;;14.93;9.90;;;;;;;21.60;56.83;100411.27;1644779;87;25743;-66
2022/10/08 10:31:33;;;;;;;15.10;10.38;;;;;;;21.39;57.18;100409.11;1679045;82;27324;-66
2022/10/08 10:34:20;;;;;;;17.35;10.63;;;;;;;21.13;57.87;100401.80;1695726;83;25615;-66
2022/10/08 10:36:57;;;;;;;15.00;11.25;;;;;;;21.00;58.49;100397.15;1700062;83;25688;-66
2022/10/08 10:39:41;;;;;;;19.60;10.78;;;;;;;20.98;59.34;100406.95;1700234;83;25738;-66
2022/10/08 10:42:33;;;;;;;11.08;9.78;;;;;;;21.09;60.35;100391.34;1694684;83;25654;-67
2022/10/08 10:45:23;;;;;;;13.13;10.00;;;;;;;21.52;60.51;100391.77;1698346;84;27450;-65
2022/10/08 10:47:50;;;;;;;13.53;10.10;;;;;;;21.65;59.82;100386.73;1695773;84;25539;-65
2022/10/08 10:50:34;;;;;;;17.40;11.30;;;;;;;21.70;58.76;100393.84;1698326;83;25679;-65
2022/10/08 10:53:20;;;;;;;15.38;10.90;;;;;;;21.54;58.75;100388.03;1698144;83;25661;-65
2022/10/08 10:56:08;;;;;;;13.48;10.30;;;;;;;21.39;58.28;100391.22;1686218;83;25858;-67
2022/10/08 10:58:54;;;;;;;14.23;10.03;;;;;;;21.23;58.93;100383.80;1705565;83;28240;-66
2022/10/08 11:01:52;;;;;;;12.23;9.30;;;;;;;21.15;59.12;100370.58;1710181;83;25663;-66
2022/10/08 11:05:11;;;;;;;12.95;10.82;;;;;;;21.03;59.31;100365.38;1718343;83;25667;-66
2022/10/08 11:07:44;;;;;;;;;;;;;;;21.05;59.94;100363.02;1704914;83;25733;-67
2022/10/08 11:10:32;;;;;;;16.07;10.23;;;;;;;21.03;59.88;100373.62;1706333;83;25761;-67
2022/10/08 11:13:26;;;;;;;12.98;10.50;;;;;;;20.89;59.72;100361.30;1717931;83;27531;-66
2022/10/08 11:16:25;;;;;;;14.30;10.75;;;;;;;20.82;60.03;100363.99;1704315;83;25689;-68
2022/10/08 11:18:57;;;;;;;11.18;9.85;;;;;;;20.68;60.01;100351.45;1701227;82;25644;-66
2022/10/08 11:21:35;;;;;;;16.85;10.50;;;;;;;20.52;60.46;100352.44;1704751;83;25773;-66
2022/10/08 11:24:28;;;;;;;11.73;9.80;;;;;;;20.41;60.82;100355.63;1705729;83;26080;-66
2022/10/08 11:27:18;;;;;;;11.85;9.53;;;;;;;20.27;61.18;100352.13;1703074;83;29655;-68
2022/10/08 11:29:52;;;;;;;16.80;11.30;;;;;;;20.17;61.76;100350.64;1701069;83;25662;-67
2022/10/08 11:32:19;;;;;;;11.05;9.78;;;;;;;20.11;62.11;100339.98;1703219;83;25788;-68
2022/10/08 11:34:56;;;;;;;17.12;10.40;;;;;;;20.06;62.35;100343.05;1707793;83;25742;-68
2022/10/08 11:37:42;;;;;;;13.38;10.58;;;;;;;19.96;62.36;100345.86;1671184;85;25784;-68
2022/10/08 11:40:38;;;;;;;14.70;10.20;;;;;;;19.86;62.49;100343.75;1674417;85;27448;-68
2022/10/08 11:43:31;;;;;;;12.40;10.53;;;;;;;19.77;62.80;100335.80;1658801;86;25691;-67